Time,TemperatureF,DewpointF,PressureIn,WindDirection,WindDirectionDegrees,WindSpeedMPH,WindSpeedGustMPH,Humidity,HourlyPrecipIn,Conditions,Clouds,dailyrainin,SolarRadiationWatts/m^2,SoftwareType,DateUTC
2013-01-16 00:00:00,27.5,16.2,-100.00,SW,227,8.9,15.9,61,0.00,,,-99.99,1.0,HOBO +U30 +Weather +,2013-01-16 07:00:00,
2013-01-16 00:05:00,27.5,16.4,-100.00,SW,230,7.8,17.4,62,0.00,,,-99.99,1.0,HOBO +U30 +Weather +,2013-01-16 07:05:00,
2013-01-16 00:10:00,28.0,16.4,-100.00,SW,225,8.5,19.7,61,0.00,,,-99.99,1.0,HOBO +U30 +Weather +,2013-01-16 07:10:00,
2013-01-16 00:15:00,27.4,16.1,-100.00,SW,236,9.6,16.3,62,0.00,,,-99.99,1.0,HOBO +U30 +Weather +,2013-01-16 07:15:00,
2013-01-16 00:20:00,27.1,16.1,-100.00,WSW,250,7.4,15.2,62,0.00,,,-99.99,1.0,HOBO +U30 +Weather +,2013-01-16 07:20:00,
2013-01-16 00:25:00,27.2,16.2,-100.00,SW,236,10.1,15.9,62,0.00,,,-99.99,1.0,HOBO +U30 +Weather +,2013-01-16 07:25:00,
2013-01-16 00:30:00,27.5,16.3,-100.00,SW,233,7.8,16.3,62,0.00,,,-99.99,1.0,HOBO +U30 +Weather +,2013-01-16 07:30:00,
2013-01-16 00:35:00,27.8,16.2,-100.00,SW,233,9.6,19.7,61,0.00,,,-99.99,1.0,HOBO +U30 +Weather +,2013-01-16 07:35:00,
2013-01-16 01:00:00,28.6,16.3,-100.00,SW,232,12.3,19.2,59,0.00,,,-99.99,1.0,HOBO +U30 +Weather +,2013-01-16 08:00:00,
2013-01-16 01:05:00,28.7,16.3,-100.00,SW,230,13.4,24.8,59,0.00,,,-99.99,1.0,HOBO +U30 +Weather +,2013-01-16 08:05:00,
2013-01-16 01:10:00,28.5,16.1,-100.00,SW,229,13.0,21.9,59,0.00,,,-99.99,1.0,HOBO +U30 +Weather +,2013-01-16 08:10:00,
2013-01-16 01:15:00,28.4,16.2,-100.00,SW,227,11.9,21.5,59,0.00,,,-99.99,1.0,HOBO +U30 +Weather +,2013-01-16 08:15:00,
2013-01-16 01:20:00,28.3,16.2,-100.00,SW,230,10.1,18.1,59,0.00,,,-99.99,1.0,HOBO +U30 +Weather +,2013-01-16 08:20:00,
2013-01-16 01:25:00,28.3,16.2,-100.00,SW,230,9.6,19.7,60,0.00,,,-99.99,1.0,HOBO +U30 +Weather +,2013-01-16 08:25:00,
2013-01-16 01:30:00,28.8,16.2,-100.00,WSW,237,10.1,18.1,58,0.00,,,-99.99,1.0,HOBO +U30 +Weather +,2013-01-16 08:30:00,
2013-01-16 01:35:00,28.5,16.2,-100.00,WSW,250,8.9,16.3,59,0.00,,,-99.99,1.0,HOBO +U30 +Weather +,2013-01-16 08:35:00,
2013-01-16 01:40:00,28.0,15.9,-100.00,WSW,248,11.2,16.3,60,0.00,,,-99.99,1.0,HOBO +U30 +Weather +,2013-01-16 08:40:00,
2013-01-16 01:45:00,27.7,15.6,-100.00,WSW,239,11.9,18.6,60,0.00,,,-99.99,1.0,HOBO +U30 +Weather +,2013-01-16 08:45:00,
2013-01-16 01:50:00,27.4,15.4,-100.00,WSW,241,10.7,16.3,60,0.00,,,-99.99,1.0,HOBO +U30 +Weather +,2013-01-16 08:50:00,
2013-01-16 01:55:00,27.3,15.5,-100.00,SW,236,10.7,20.8,60,0.00,,,-99.99,1.0,HOBO +U30 +Weather +,2013-01-16 08:55:00,
2013-01-16 02:00:00,27.2,15.4,-100.00,SW,236,13.0,19.2,60,0.00,,,-99.99,1.0,HOBO +U30 +Weather +,2013-01-16 09:00:00,
2013-01-16 02:05:00,27.3,15.7,-100.00,WSW,237,9.6,17.0,61,0.00,,,-99.99,1.0,HOBO +U30 +Weather +,2013-01-16 09:05:00,
2013-01-16 02:10:00,27.5,15.6,-100.00,SW,232,10.7,19.7,60,0.00,,,-99.99,1.0,HOBO +U30 +Weather +,2013-01-16 09:10:00,
2013-01-16 02:15:00,27.4,15.5,-100.00,SW,236,11.2,21.5,60,0.00,,,-99.99,1.0,HOBO +U30 +Weather +,2013-01-16 09:15:00,
2013-01-16 02:20:00,27.4,15.5,-100.00,SW,234,11.9,19.7,60,0.00,,,-99.99,1.0,HOBO +U30 +Weather +,2013-01-16 09:20:00,
2013-01-16 02:25:00,27.4,15.6,-100.00,SW,233,10.7,21.9,60,0.00,,,-99.99,1.0,HOBO +U30 +Weather +,2013-01-16 09:25:00,
2013-01-16 02:30:00,27.7,15.7,-100.00,WSW,237,11.2,18.6,60,0.00,,,-99.99,1.0,HOBO +U30 +Weather +,2013-01-16 09:30:00,
2013-01-16 02:35:00,28.0,15.8,-100.00,WSW,248,13.0,21.5,59,0.00,,,-99.99,1.0,HOBO +U30 +Weather +,2013-01-16 09:35:00,
2013-01-16 02:40:00,27.6,15.7,-100.00,WSW,244,13.4,25.3,60,0.00,,,-99.99,1.0,HOBO +U30 +Weather +,2013-01-16 09:40:00,
2013-01-16 02:45:00,27.6,15.7,-100.00,WSW,247,15.2,24.8,60,0.00,,,-99.99,1.0,HOBO +U30 +Weather +,2013-01-16 09:45:00,
2013-01-16 02:50:00,27.9,16.0,-100.00,WSW,244,12.3,19.2,60,0.00,,,-99.99,1.0,HOBO +U30 +Weather +,2013-01-16 09:50:00,
2013-01-16 02:55:00,28.1,16.0,-100.00,WSW,248,14.1,21.9,59,0.00,,,-99.99,1.0,HOBO +U30 +Weather +,2013-01-16 09:55:00,
2013-01-16 03:00:00,28.1,15.8,-100.00,WSW,251,13.0,19.2,59,0.00,,,-99.99,1.0,HOBO +U30 +Weather +,2013-01-16 10:00:00,
2013-01-16 03:05:00,27.8,15.6,-100.00,WSW,250,15.9,22.6,59,0.00,,,-99.99,1.0,HOBO +U30 +Weather +,2013-01-16 10:05:00,
2013-01-16 03:10:00,27.6,15.6,-100.00,WSW,244,14.5,20.4,60,0.00,,,-99.99,1.0,HOBO +U30 +Weather +,2013-01-16 10:10:00,
2013-01-16 03:15:00,27.6,15.7,-100.00,WSW,243,13.4,20.4,60,0.00,,,-99.99,1.0,HOBO +U30 +Weather +,2013-01-16 10:15:00,
2013-01-16 03:20:00,27.9,15.7,-100.00,SW,226,13.0,20.4,59,0.00,,,-99.99,1.0,HOBO +U30 +Weather +,2013-01-16 10:20:00,
2013-01-16 03:25:00,27.6,15.7,-100.00,SW,226,11.2,18.6,60,0.00,,,-99.99,1.0,HOBO +U30 +Weather +,2013-01-16 10:25:00,
2013-01-16 03:30:00,27.6,15.8,-100.00,SW,218,12.3,20.4,60,0.00,,,-99.99,1.0,HOBO +U30 +Weather +,2013-01-16 10:30:00,
2013-01-16 03:35:00,27.9,15.9,-100.00,SW,222,13.4,23.7,60,0.00,,,-99.99,1.0,HOBO +U30 +Weather +,2013-01-16 10:35:00,
2013-01-16 03:40:00,27.9,15.9,-100.00,SW,226,11.9,20.4,60,0.00,,,-99.99,1.0,HOBO +U30 +Weather +,2013-01-16 10:40:00,
2013-01-16 03:45:00,27.8,15.8,-100.00,SW,223,14.5,23.0,60,0.00,,,-99.99,1.0,HOBO +U30 +Weather +,2013-01-16 10:45:00,
2013-01-16 03:50:00,27.6,15.8,-100.00,SW,222,14.1,23.7,60,0.00,,,-99.99,1.0,HOBO +U30 +Weather +,2013-01-16 10:50:00,
2013-01-16 03:55:00,27.8,16.1,-100.00,SW,225,10.1,18.1,61,0.00,,,-99.99,1.0,HOBO +U30 +Weather +,2013-01-16 10:55:00,
2013-01-16 04:00:00,28.3,16.1,-100.00,WSW,243,11.2,19.2,59,0.00,,,-99.99,1.0,HOBO +U30 +Weather +,2013-01-16 11:00:00,
2013-01-16 04:05:00,28.3,16.0,-100.00,WSW,248,14.1,20.8,59,0.00,,,-99.99,1.0,HOBO +U30 +Weather +,2013-01-16 11:05:00,
2013-01-16 04:10:00,28.3,16.1,-100.00,WSW,246,13.0,24.2,59,0.00,,,-99.99,1.0,HOBO +U30 +Weather +,2013-01-16 11:10:00,
2013-01-16 04:15:00,28.4,16.2,-100.00,WSW,248,10.7,17.0,59,0.00,,,-99.99,1.0,HOBO +U30 +Weather +,2013-01-16 11:15:00,
2013-01-16 04:20:00,28.3,16.2,-100.00,WSW,247,10.7,20.8,60,0.00,,,-99.99,1.0,HOBO +U30 +Weather +,2013-01-16 11:20:00,
2013-01-16 04:25:00,28.6,16.2,-100.00,WSW,241,11.9,19.7,59,0.00,,,-99.99,1.0,HOBO +U30 +Weather +,2013-01-16 11:25:00,
2013-01-16 04:30:00,28.5,16.2,-100.00,SW,236,11.2,17.4,59,0.00,,,-99.99,1.0,HOBO +U30 +Weather +,2013-01-16 11:30:00,
2013-01-16 04:35:00,28.6,16.3,-100.00,SW,226,8.9,14.5,59,0.00,,,-99.99,1.0,HOBO +U30 +Weather +,2013-01-16 11:35:00,
2013-01-16 04:40:00,28.4,16.2,-100.00,SW,215,10.7,17.0,59,0.00,,,-99.99,1.0,HOBO +U30 +Weather +,2013-01-16 11:40:00,
2013-01-16 04:45:00,28.4,16.2,-100.00,SSW,212,11.2,17.4,59,0.00,,,-99.99,1.0,HOBO +U30 +Weather +,2013-01-16 11:45:00,
2013-01-16 04:50:00,28.4,16.2,-100.00,SSW,213,10.7,17.4,59,0.00,,,-99.99,1.0,HOBO +U30 +Weather +,2013-01-16 11:50:00,
2013-01-16 04:55:00,28.7,16.1,-100.00,SW,218,12.3,21.5,58,0.00,,,-99.99,1.0,HOBO +U30 +Weather +,2013-01-16 11:55:00,
2013-01-16 05:00:00,28.1,15.8,-100.00,SW,215,13.0,18.6,59,0.00,,,-99.99,1.0,HOBO +U30 +Weather +,2013-01-16 12:00:00,
2013-01-16 05:05:00,27.8,15.6,-100.00,SW,216,12.3,18.6,59,0.00,,,-99.99,1.0,HOBO +U30 +Weather +,2013-01-16 12:05:00,
2013-01-16 05:10:00,27.5,15.7,-100.00,SSW,213,8.9,16.3,60,0.00,,,-99.99,1.0,HOBO +U30 +Weather +,2013-01-16 12:10:00,
2013-01-16 05:15:00,27.6,15.8,-100.00,SW,215,10.1,18.6,60,0.00,,,-99.99,1.0,HOBO +U30 +Weather +,2013-01-16 12:15:00,
2013-01-16 05:20:00,27.7,15.8,-100.00,SW,215,11.9,20.4,60,0.00,,,-99.99,1.0,HOBO +U30 +Weather +,2013-01-16 12:20:00,
2013-01-16 05:25:00,28.0,15.9,-100.00,SW,220,8.9,16.3,60,0.00,,,-99.99,1.0,HOBO +U30 +Weather +,2013-01-16 12:25:00,
2013-01-16 05:30:00,28.1,15.9,-100.00,SW,220,10.1,18.1,59,0.00,,,-99.99,1.0,HOBO +U30 +Weather +,2013-01-16 12:30:00,
2013-01-16 05:35:00,28.2,15.8,-100.00,SW,229,11.2,18.6,59,0.00,,,-99.99,1.0,HOBO +U30 +Weather +,2013-01-16 12:35:00,
2013-01-16 05:40:00,28.1,15.6,-100.00,WSW,237,11.9,21.9,59,0.00,,,-99.99,1.0,HOBO +U30 +Weather +,2013-01-16 12:40:00,
2013-01-16 05:45:00,28.0,15.7,-100.00,SW,232,10.1,21.9,59,0.00,,,-99.99,1.0,HOBO +U30 +Weather +,2013-01-16 12:45:00,
2013-01-16 05:50:00,28.2,15.7,-100.00,SW,234,9.6,23.7,58,0.00,,,-99.99,1.0,HOBO +U30 +Weather +,2013-01-16 12:50:00,
2013-01-16 05:55:00,28.4,15.7,-100.00,SW,229,9.6,16.3,58,0.00,,,-99.99,1.0,HOBO +U30 +Weather +,2013-01-16 12:55:00,
2013-01-16 06:00:00,28.4,15.7,-100.00,SW,230,8.5,16.3,58,0.00,,,-99.99,1.0,HOBO +U30 +Weather +,2013-01-16 13:00:00,
2013-01-16 06:05:00,28.6,15.7,-100.00,SW,234,10.1,18.6,58,0.00,,,-99.99,1.0,HOBO +U30 +Weather +,2013-01-16 13:05:00,
2013-01-16 06:10:00,28.6,15.9,-100.00,WSW,241,7.8,15.9,58,0.00,,,-99.99,1.0,HOBO +U30 +Weather +,2013-01-16 13:10:00,
2013-01-16 06:15:00,28.8,15.8,-100.00,WSW,239,10.7,19.2,57,0.00,,,-99.99,1.0,HOBO +U30 +Weather +,2013-01-16 13:15:00,
2013-01-16 06:20:00,28.7,15.8,-100.00,SW,234,8.9,14.5,57,0.00,,,-99.99,1.0,HOBO +U30 +Weather +,2013-01-16 13:20:00,
2013-01-16 06:25:00,28.8,15.7,-100.00,SW,230,9.6,17.0,57,0.00,,,-99.99,1.0,HOBO +U30 +Weather +,2013-01-16 13:25:00,
2013-01-16 06:30:00,28.8,15.7,-100.00,SW,222,8.5,14.5,57,0.00,,,-99.99,1.0,HOBO +U30 +Weather +,2013-01-16 13:30:00,
2013-01-16 06:35:00,28.6,15.7,-100.00,SSW,213,8.9,15.2,57,0.00,,,-99.99,1.0,HOBO +U30 +Weather +,2013-01-16 13:35:00,
2013-01-16 06:40:00,28.4,15.7,-100.00,SSW,206,10.7,18.1,58,0.00,,,-99.99,1.0,HOBO +U30 +Weather +,2013-01-16 13:40:00,
2013-01-16 06:45:00,28.2,15.8,-100.00,SSW,204,10.1,15.9,59,0.00,,,-99.99,1.0,HOBO +U30 +Weather +,2013-01-16 13:45:00,
2013-01-16 06:50:00,28.4,15.9,-100.00,SSW,199,11.2,15.9,59,0.00,,,-99.99,1.0,HOBO +U30 +Weather +,2013-01-16 13:50:00,
2013-01-16 06:55:00,28.6,16.1,-100.00,SSW,194,11.2,15.2,58,0.00,,,-99.99,1.0,HOBO +U30 +Weather +,2013-01-16 13:55:00,
2013-01-16 07:00:00,29.1,16.1,-100.00,SSW,199,10.1,15.9,57,0.00,,,-99.99,1.0,HOBO +U30 +Weather +,2013-01-16 14:00:00,
2013-01-16 07:05:00,29.3,16.1,-100.00,SSW,195,10.7,14.5,57,0.00,,,-99.99,1.0,HOBO +U30 +Weather +,2013-01-16 14:05:00,
2013-01-16 07:10:00,29.6,16.1,-100.00,SSW,192,11.9,14.5,56,0.00,,,-99.99,1.0,HOBO +U30 +Weather +,2013-01-16 14:10:00,
2013-01-16 07:15:00,30.0,16.1,-100.00,SSW,192,10.7,15.9,55,0.00,,,-99.99,1.0,HOBO +U30 +Weather +,2013-01-16 14:15:00,
2013-01-16 07:20:00,29.6,16.0,-100.00,South,190,10.1,14.5,56,0.00,,,-99.99,1.0,HOBO +U30 +Weather +,2013-01-16 14:20:00,
2013-01-16 07:25:00,29.8,16.1,-100.00,South,187,11.2,17.4,56,0.00,,,-99.99,1.0,HOBO +U30 +Weather +,2013-01-16 14:25:00,
2013-01-16 07:30:00,29.7,16.1,-100.00,South,181,10.7,15.2,56,0.00,,,-99.99,1.0,HOBO +U30 +Weather +,2013-01-16 14:30:00,
2013-01-16 07:35:00,30.0,16.3,-100.00,South,187,11.9,15.9,56,0.00,,,-99.99,1.0,HOBO +U30 +Weather +,2013-01-16 14:35:00,
2013-01-16 07:40:00,30.1,16.4,-100.00,SSW,195,8.9,13.4,56,0.00,,,-99.99,2.0,HOBO +U30 +Weather +,2013-01-16 14:40:00,
2013-01-16 07:45:00,30.3,16.4,-100.00,SSW,206,8.5,17.0,55,0.00,,,-99.99,3.0,HOBO +U30 +Weather +,2013-01-16 14:45:00,
2013-01-16 07:50:00,30.3,16.4,-100.00,SW,219,5.6,9.6,55,0.00,,,-99.99,6.0,HOBO +U30 +Weather +,2013-01-16 14:50:00,
2013-01-16 07:55:00,30.2,16.5,-100.00,SSW,213,4.5,9.6,56,0.00,,,-99.99,9.0,HOBO +U30 +Weather +,2013-01-16 14:55:00,
2013-01-16 08:00:00,30.6,16.4,-100.00,SSW,211,6.7,12.3,55,0.00,,,-99.99,12.0,HOBO +U30 +Weather +,2013-01-16 15:00:00,
2013-01-16 08:05:00,30.7,16.4,-100.00,SSW,212,8.5,13.4,54,0.00,,,-99.99,16.0,HOBO +U30 +Weather +,2013-01-16 15:05:00,
2013-01-16 08:10:00,31.0,16.5,-100.00,SSW,209,6.7,11.2,54,0.00,,,-99.99,24.0,HOBO +U30 +Weather +,2013-01-16 15:10:00,
2013-01-16 08:15:00,31.4,16.7,-100.00,SSW,209,6.3,9.6,54,0.00,,,-99.99,59.0,HOBO +U30 +Weather +,2013-01-16 15:15:00,
2013-01-16 08:20:00,31.6,16.6,-100.00,SSW,213,7.4,11.9,53,0.00,,,-99.99,68.0,HOBO +U30 +Weather +,2013-01-16 15:20:00,
2013-01-16 08:25:00,31.5,16.8,-100.00,SSW,209,7.4,11.9,54,0.00,,,-99.99,102.0,HOBO +U30 +Weather +,2013-01-16 15:25:00,
2013-01-16 08:30:00,31.3,16.8,-100.00,SSW,209,9.6,15.2,54,0.00,,,-99.99,123.0,HOBO +U30 +Weather +,2013-01-16 15:30:00,
2013-01-16 08:35:00,31.5,17.0,-100.00,SSW,213,10.1,17.0,54,0.00,,,-99.99,144.0,HOBO +U30 +Weather +,2013-01-16 15:35:00,
2013-01-16 08:40:00,31.7,17.1,-100.00,SSW,211,10.1,14.5,54,0.00,,,-99.99,169.0,HOBO +U30 +Weather +,2013-01-16 15:40:00,
2013-01-16 09:00:00,32.0,17.6,-100.00,SSW,197,8.9,13.0,54,0.00,,,-99.99,159.0,HOBO +U30 +Weather +,2013-01-16 16:00:00,
2013-01-16 09:05:00,32.2,17.6,-100.00,South,191,8.5,11.9,54,0.00,,,-99.99,138.0,HOBO +U30 +Weather +,2013-01-16 16:05:00,
2013-01-16 09:10:00,32.5,17.7,-100.00,South,185,8.9,12.3,53,0.00,,,-99.99,124.0,HOBO +U30 +Weather +,2013-01-16 16:10:00,
2013-01-16 09:15:00,32.8,17.8,-100.00,South,184,7.4,11.9,53,0.00,,,-99.99,126.0,HOBO +U30 +Weather +,2013-01-16 16:15:00,
2013-01-16 09:20:00,33.1,17.9,-100.00,South,187,8.5,13.4,53,0.00,,,-99.99,128.0,HOBO +U30 +Weather +,2013-01-16 16:20:00,
2013-01-16 09:25:00,33.1,18.1,-100.00,South,184,7.8,13.0,53,0.00,,,-99.99,131.0,HOBO +U30 +Weather +,2013-01-16 16:25:00,
2013-01-16 09:30:00,33.6,18.2,-100.00,South,190,8.9,11.9,52,0.00,,,-99.99,143.0,HOBO +U30 +Weather +,2013-01-16 16:30:00,
2013-01-16 09:35:00,34.1,18.3,-100.00,SSW,194,6.7,11.2,52,0.00,,,-99.99,151.0,HOBO +U30 +Weather +,2013-01-16 16:35:00,
2013-01-16 09:40:00,34.3,18.3,-100.00,SSW,202,7.8,12.3,51,0.00,,,-99.99,173.0,HOBO +U30 +Weather +,2013-01-16 16:40:00,
2013-01-16 09:45:00,34.5,18.7,-100.00,SSW,205,6.7,10.7,51,0.00,,,-99.99,153.0,HOBO +U30 +Weather +,2013-01-16 16:45:00,
2013-01-16 09:50:00,34.4,18.4,-100.00,SSW,209,6.3,13.0,51,0.00,,,-99.99,164.0,HOBO +U30 +Weather +,2013-01-16 16:50:00,
2013-01-16 09:55:00,34.6,18.5,-100.00,SW,218,7.8,13.4,51,0.00,,,-99.99,267.0,HOBO +U30 +Weather +,2013-01-16 16:55:00,
2013-01-16 10:00:00,34.9,18.6,-100.00,SW,227,4.5,8.9,51,0.00,,,-99.99,229.0,HOBO +U30 +Weather +,2013-01-16 17:00:00,
2013-01-16 10:05:00,35.3,18.5,-100.00,SW,232,5.1,10.1,49,0.00,,,-99.99,314.0,HOBO +U30 +Weather +,2013-01-16 17:05:00,
2013-01-16 10:10:00,35.0,18.4,-100.00,SW,236,6.3,11.2,50,0.00,,,-99.99,216.0,HOBO +U30 +Weather +,2013-01-16 17:10:00,
2013-01-16 10:15:00,35.8,18.9,-100.00,WSW,237,6.3,11.9,49,0.00,,,-99.99,346.0,HOBO +U30 +Weather +,2013-01-16 17:15:00,
2013-01-16 10:20:00,36.0,19.0,-100.00,WSW,239,4.5,9.6,49,0.00,,,-99.99,231.0,HOBO +U30 +Weather +,2013-01-16 17:20:00,
2013-01-16 10:25:00,36.3,18.8,-100.00,SW,233,6.7,13.4,48,0.00,,,-99.99,294.0,HOBO +U30 +Weather +,2013-01-16 17:25:00,
2013-01-16 10:30:00,36.5,18.8,-100.00,SW,232,6.7,11.9,48,0.00,,,-99.99,319.0,HOBO +U30 +Weather +,2013-01-16 17:30:00,
2013-01-16 10:35:00,37.1,18.9,-100.00,SW,234,6.3,10.1,47,0.00,,,-99.99,402.0,HOBO +U30 +Weather +,2013-01-16 17:35:00,
2013-01-16 10:40:00,37.9,19.2,-100.00,SW,225,6.7,13.4,46,0.00,,,-99.99,411.0,HOBO +U30 +Weather +,2013-01-16 17:40:00,
2013-01-16 10:45:00,38.5,19.4,-100.00,SW,220,6.7,12.3,45,0.00,,,-99.99,419.0,HOBO +U30 +Weather +,2013-01-16 17:45:00,
2013-01-16 10:50:00,39.0,19.4,-100.00,SW,222,6.7,13.0,44,0.00,,,-99.99,431.0,HOBO +U30 +Weather +,2013-01-16 17:50:00,
2013-01-16 10:55:00,39.1,19.5,-100.00,SW,218,9.6,14.1,44,0.00,,,-99.99,428.0,HOBO +U30 +Weather +,2013-01-16 17:55:00,
2013-01-16 11:00:00,39.2,19.3,-100.00,SW,225,8.5,13.0,44,0.00,,,-99.99,424.0,HOBO +U30 +Weather +,2013-01-16 18:00:00,
2013-01-16 11:05:00,39.6,19.5,-100.00,SW,227,6.3,12.3,43,0.00,,,-99.99,433.0,HOBO +U30 +Weather +,2013-01-16 18:05:00,
2013-01-16 11:10:00,39.6,19.3,-100.00,WSW,237,7.8,15.2,43,0.00,,,-99.99,449.0,HOBO +U30 +Weather +,2013-01-16 18:10:00,
2013-01-16 11:15:00,39.3,19.0,-100.00,WSW,237,8.9,15.2,43,0.00,,,-99.99,416.0,HOBO +U30 +Weather +,2013-01-16 18:15:00,
2013-01-16 11:20:00,39.3,19.4,-100.00,WSW,247,7.8,13.4,44,0.00,,,-99.99,357.0,HOBO +U30 +Weather +,2013-01-16 18:20:00,
2013-01-16 11:25:00,39.8,20.0,-100.00,SW,229,6.3,12.3,44,0.00,,,-99.99,429.0,HOBO +U30 +Weather +,2013-01-16 18:25:00,
2013-01-16 11:30:00,39.1,19.2,-100.00,WSW,248,10.1,15.9,44,0.00,,,-99.99,436.0,HOBO +U30 +Weather +,2013-01-16 18:30:00,
2013-01-16 11:35:00,39.2,19.1,-100.00,WSW,246,9.6,17.0,43,0.00,,,-99.99,428.0,HOBO +U30 +Weather +,2013-01-16 18:35:00,
2013-01-16 11:40:00,39.5,19.7,-100.00,WSW,247,7.8,14.1,44,0.00,,,-99.99,321.0,HOBO +U30 +Weather +,2013-01-16 18:40:00,
2013-01-16 11:45:00,39.5,19.6,-100.00,WSW,254,8.9,16.3,44,0.00,,,-99.99,368.0,HOBO +U30 +Weather +,2013-01-16 18:45:00,
2013-01-16 11:50:00,40.0,20.0,-100.00,WSW,243,8.9,15.2,44,0.00,,,-99.99,507.0,HOBO +U30 +Weather +,2013-01-16 18:50:00,
2013-01-16 11:55:00,39.8,20.2,-100.00,WSW,241,8.5,12.3,45,0.00,,,-99.99,368.0,HOBO +U30 +Weather +,2013-01-16 18:55:00,
2013-01-16 12:00:00,40.2,20.4,-100.00,SW,222,8.5,13.4,44,0.00,,,-99.99,427.0,HOBO +U30 +Weather +,2013-01-16 19:00:00,
2013-01-16 12:05:00,40.1,20.3,-100.00,SW,230,7.8,13.0,44,0.00,,,-99.99,411.0,HOBO +U30 +Weather +,2013-01-16 19:05:00,
2013-01-16 12:10:00,39.9,19.6,-100.00,SW,220,10.7,17.4,43,0.00,,,-99.99,386.0,HOBO +U30 +Weather +,2013-01-16 19:10:00,
2013-01-16 12:15:00,40.1,19.9,-100.00,SW,232,9.6,16.3,43,0.00,,,-99.99,403.0,HOBO +U30 +Weather +,2013-01-16 19:15:00,
2013-01-16 12:20:00,40.0,20.2,-100.00,WSW,237,7.8,14.1,44,0.00,,,-99.99,406.0,HOBO +U30 +Weather +,2013-01-16 19:20:00,
2013-01-16 12:25:00,39.8,20.1,-100.00,SW,230,8.5,15.9,44,0.00,,,-99.99,377.0,HOBO +U30 +Weather +,2013-01-16 19:25:00,
2013-01-16 12:30:00,41.3,21.4,-100.00,SW,230,4.5,10.1,44,0.00,,,-99.99,449.0,HOBO +U30 +Weather +,2013-01-16 19:30:00,
2013-01-16 12:35:00,40.1,20.6,-100.00,WSW,248,5.1,8.9,45,0.00,,,-99.99,317.0,HOBO +U30 +Weather +,2013-01-16 19:35:00,
2013-01-16 12:40:00,40.2,20.3,-100.00,WSW,257,5.6,10.1,44,0.00,,,-99.99,321.0,HOBO +U30 +Weather +,2013-01-16 19:40:00,
2013-01-16 12:45:00,40.4,21.2,-100.00,WSW,251,6.3,10.1,45,0.00,,,-99.99,314.0,HOBO +U30 +Weather +,2013-01-16 19:45:00,
2013-01-16 12:50:00,40.3,21.0,-100.00,WSW,250,6.3,11.9,45,0.00,,,-99.99,332.0,HOBO +U30 +Weather +,2013-01-16 19:50:00,
2013-01-16 12:55:00,40.3,21.1,-100.00,WSW,256,5.6,13.4,45,0.00,,,-99.99,323.0,HOBO +U30 +Weather +,2013-01-16 19:55:00,
2013-01-16 13:00:00,39.9,21.3,-100.00,West,261,5.1,10.1,46,0.00,,,-99.99,282.0,HOBO +U30 +Weather +,2013-01-16 20:00:00,
2013-01-16 13:05:00,39.7,21.2,-100.00,WSW,251,5.6,11.9,47,0.00,,,-99.99,281.0,HOBO +U30 +Weather +,2013-01-16 20:05:00,
2013-01-16 13:10:00,39.2,21.2,-100.00,WSW,248,8.9,16.3,48,0.00,,,-99.99,277.0,HOBO +U30 +Weather +,2013-01-16 20:10:00,
2013-01-16 13:15:00,39.3,21.4,-100.00,West,260,5.1,9.6,48,0.00,,,-99.99,263.0,HOBO +U30 +Weather +,2013-01-16 20:15:00,
2013-01-16 13:20:00,39.1,21.3,-100.00,WSW,248,7.4,12.3,48,0.00,,,-99.99,227.0,HOBO +U30 +Weather +,2013-01-16 20:20:00,
2013-01-16 13:25:00,38.9,21.5,-100.00,WSW,247,7.4,15.2,49,0.00,,,-99.99,228.0,HOBO +U30 +Weather +,2013-01-16 20:25:00,
2013-01-16 13:30:00,39.3,22.0,-100.00,WSW,251,7.4,11.9,49,0.00,,,-99.99,212.0,HOBO +U30 +Weather +,2013-01-16 20:30:00,
2013-01-16 13:35:00,39.4,22.1,-100.00,WSW,256,5.6,10.1,49,0.00,,,-99.99,239.0,HOBO +U30 +Weather +,2013-01-16 20:35:00,
2013-01-16 13:40:00,39.3,22.0,-100.00,West,264,6.7,12.3,49,0.00,,,-99.99,233.0,HOBO +U30 +Weather +,2013-01-16 20:40:00,
2013-01-16 13:45:00,39.4,22.0,-100.00,WSW,257,6.7,11.2,49,0.00,,,-99.99,232.0,HOBO +U30 +Weather +,2013-01-16 20:45:00,
2013-01-16 13:50:00,39.5,22.4,-100.00,WSW,253,6.7,13.0,49,0.00,,,-99.99,229.0,HOBO +U30 +Weather +,2013-01-16 20:50:00,
2013-01-16 14:05:00,39.7,22.4,-100.00,WSW,257,6.7,13.4,49,0.00,,,-99.99,224.0,HOBO +U30 +Weather +,2013-01-16 21:05:00,
2013-01-16 14:10:00,39.5,22.4,-100.00,WSW,248,7.8,11.9,49,0.00,,,-99.99,221.0,HOBO +U30 +Weather +,2013-01-16 21:10:00,
2013-01-16 14:15:00,39.5,22.6,-100.00,WSW,247,6.7,11.9,50,0.00,,,-99.99,222.0,HOBO +U30 +Weather +,2013-01-16 21:15:00,
2013-01-16 14:20:00,39.5,22.8,-100.00,WSW,256,6.7,11.9,50,0.00,,,-99.99,226.0,HOBO +U30 +Weather +,2013-01-16 21:20:00,
2013-01-16 14:25:00,39.6,22.8,-100.00,WSW,250,5.1,8.5,50,0.00,,,-99.99,228.0,HOBO +U30 +Weather +,2013-01-16 21:25:00,
2013-01-16 14:30:00,39.6,22.7,-100.00,WSW,250,6.3,10.7,50,0.00,,,-99.99,218.0,HOBO +U30 +Weather +,2013-01-16 21:30:00,
2013-01-16 14:35:00,39.7,23.0,-100.00,WSW,247,6.7,11.9,50,0.00,,,-99.99,222.0,HOBO +U30 +Weather +,2013-01-16 21:35:00,
2013-01-16 14:40:00,39.6,23.0,-100.00,WSW,258,6.7,13.0,51,0.00,,,-99.99,214.0,HOBO +U30 +Weather +,2013-01-16 21:40:00,
2013-01-16 14:45:00,39.7,23.1,-100.00,WSW,256,6.3,10.7,51,0.00,,,-99.99,177.0,HOBO +U30 +Weather +,2013-01-16 21:45:00,
2013-01-16 14:50:00,39.7,23.0,-100.00,WSW,251,5.6,11.9,50,0.00,,,-99.99,162.0,HOBO +U30 +Weather +,2013-01-16 21:50:00,
2013-01-16 14:55:00,39.7,23.1,-100.00,West,260,5.6,8.9,51,0.00,,,-99.99,148.0,HOBO +U30 +Weather +,2013-01-16 21:55:00,
2013-01-16 15:00:00,39.8,23.4,-100.00,West,260,5.6,10.7,51,0.00,,,-99.99,139.0,HOBO +U30 +Weather +,2013-01-16 22:00:00,
2013-01-16 15:05:00,39.5,23.0,-100.00,West,265,6.3,10.1,51,0.00,,,-99.99,133.0,HOBO +U30 +Weather +,2013-01-16 22:05:00,
2013-01-16 15:10:00,39.4,23.1,-100.00,West,265,6.3,8.9,51,0.00,,,-99.99,129.0,HOBO +U30 +Weather +,2013-01-16 22:10:00,
2013-01-16 15:15:00,39.0,23.1,-100.00,West,265,6.3,8.9,52,0.00,,,-99.99,126.0,HOBO +U30 +Weather +,2013-01-16 22:15:00,
2013-01-16 15:20:00,38.9,22.9,-100.00,West,265,5.6,10.1,52,0.00,,,-99.99,121.0,HOBO +U30 +Weather +,2013-01-16 22:20:00,
2013-01-16 15:25:00,38.8,23.0,-100.00,West,263,6.3,10.7,52,0.00,,,-99.99,116.0,HOBO +U30 +Weather +,2013-01-16 22:25:00,
2013-01-16 15:30:00,38.7,22.7,-100.00,West,267,6.7,10.7,52,0.00,,,-99.99,112.0,HOBO +U30 +Weather +,2013-01-16 22:30:00,
2013-01-16 15:35:00,38.7,23.0,-100.00,WSW,257,6.3,9.6,52,0.00,,,-99.99,101.0,HOBO +U30 +Weather +,2013-01-16 22:35:00,
2013-01-16 15:40:00,38.6,22.7,-100.00,WSW,258,7.4,11.9,52,0.00,,,-99.99,94.0,HOBO +U30 +Weather +,2013-01-16 22:40:00,
2013-01-16 15:45:00,38.6,22.7,-100.00,West,264,5.1,8.9,52,0.00,,,-99.99,93.0,HOBO +U30 +Weather +,2013-01-16 22:45:00,
2013-01-16 15:50:00,38.4,22.7,-100.00,West,260,6.7,11.2,53,0.00,,,-99.99,92.0,HOBO +U30 +Weather +,2013-01-16 22:50:00,
2013-01-16 15:55:00,38.3,22.6,-100.00,West,264,6.7,10.7,52,0.00,,,-99.99,78.0,HOBO +U30 +Weather +,2013-01-16 22:55:00,
2013-01-16 16:00:00,38.1,22.4,-100.00,West,268,7.4,11.9,52,0.00,,,-99.99,68.0,HOBO +U30 +Weather +,2013-01-16 23:00:00,
2013-01-16 16:05:00,37.8,22.4,-100.00,West,265,6.7,11.2,53,0.00,,,-99.99,61.0,HOBO +U30 +Weather +,2013-01-16 23:05:00,
2013-01-16 16:10:00,37.7,22.3,-100.00,West,268,6.3,8.5,53,0.00,,,-99.99,51.0,HOBO +U30 +Weather +,2013-01-16 23:10:00,
2013-01-16 16:15:00,37.5,22.2,-100.00,West,264,6.7,9.6,53,0.00,,,-99.99,42.0,HOBO +U30 +Weather +,2013-01-16 23:15:00,
2013-01-16 16:20:00,37.3,22.2,-100.00,West,267,6.7,10.1,54,0.00,,,-99.99,36.0,HOBO +U30 +Weather +,2013-01-16 23:20:00,
2013-01-16 16:25:00,36.9,21.9,-100.00,West,268,6.7,10.7,54,0.00,,,-99.99,29.0,HOBO +U30 +Weather +,2013-01-16 23:25:00,
2013-01-16 16:30:00,36.6,21.8,-100.00,West,271,6.7,11.9,54,0.00,,,-99.99,23.0,HOBO +U30 +Weather +,2013-01-16 23:30:00,
2013-01-16 16:35:00,36.3,21.8,-100.00,West,263,6.7,10.1,55,0.00,,,-99.99,18.0,HOBO +U30 +Weather +,2013-01-16 23:35:00,
2013-01-16 16:40:00,35.8,21.6,-100.00,West,263,7.8,11.9,55,0.00,,,-99.99,14.0,HOBO +U30 +Weather +,2013-01-16 23:40:00,
2013-01-16 16:45:00,35.5,21.5,-100.00,West,261,6.7,10.7,56,0.00,,,-99.99,11.0,HOBO +U30 +Weather +,2013-01-16 23:45:00,
2013-01-16 16:50:00,35.5,21.5,-100.00,West,261,6.7,10.7,56,0.00,,,-99.99,6.0,HOBO +U30 +Weather +,2013-01-16 23:50:00,
2013-01-16 16:55:00,35.4,21.4,-100.00,WSW,258,6.3,11.9,56,0.00,,,-99.99,9.0,HOBO +U30 +Weather +,2013-01-16 23:55:00,
2013-01-16 17:00:00,35.3,21.3,-100.00,WSW,258,6.7,11.2,56,0.00,,,-99.99,13.0,HOBO +U30 +Weather +,2013-01-17 00:00:00,
2013-01-16 17:05:00,35.1,21.4,-100.00,WSW,258,5.6,10.1,56,0.00,,,-99.99,11.0,HOBO +U30 +Weather +,2013-01-17 00:05:00,
2013-01-16 17:10:00,34.8,21.2,-100.00,West,263,5.6,8.9,57,0.00,,,-99.99,4.0,HOBO +U30 +Weather +,2013-01-17 00:10:00,
2013-01-16 17:15:00,34.5,20.9,-100.00,WSW,251,4.5,8.5,57,0.00,,,-99.99,1.0,HOBO +U30 +Weather +,2013-01-17 00:15:00,
2013-01-16 17:20:00,34.4,21.0,-100.00,WSW,243,5.1,10.1,57,0.00,,,-99.99,1.0,HOBO +U30 +Weather +,2013-01-17 00:20:00,
2013-01-16 17:25:00,34.2,20.5,-100.00,WSW,246,5.1,8.5,56,0.00,,,-99.99,1.0,HOBO +U30 +Weather +,2013-01-17 00:25:00,
2013-01-16 17:30:00,33.9,20.5,-100.00,WSW,243,5.1,8.5,57,0.00,,,-99.99,1.0,HOBO +U30 +Weather +,2013-01-17 00:30:00,
2013-01-16 17:35:00,33.8,20.4,-100.00,WSW,237,4.0,7.4,57,0.00,,,-99.99,1.0,HOBO +U30 +Weather +,2013-01-17 00:35:00,
2013-01-16 17:40:00,33.9,20.4,-100.00,SW,234,4.0,8.9,57,0.00,,,-99.99,1.0,HOBO +U30 +Weather +,2013-01-17 00:40:00,
2013-01-16 17:45:00,33.7,20.3,-100.00,SW,226,4.5,7.8,57,0.00,,,-99.99,1.0,HOBO +U30 +Weather +,2013-01-17 00:45:00,
2013-01-16 17:50:00,33.6,20.3,-100.00,WSW,237,4.5,7.8,57,0.00,,,-99.99,1.0,HOBO +U30 +Weather +,2013-01-17 00:50:00,
2013-01-16 17:55:00,33.4,20.0,-100.00,WSW,243,6.7,9.6,57,0.00,,,-99.99,1.0,HOBO +U30 +Weather +,2013-01-17 00:55:00,
2013-01-16 18:00:00,33.2,19.9,-100.00,WSW,244,6.3,10.1,57,0.00,,,-99.99,1.0,HOBO +U30 +Weather +,2013-01-17 01:00:00,
2013-01-16 18:05:00,33.0,19.7,-100.00,WSW,248,6.3,10.7,57,0.00,,,-99.99,1.0,HOBO +U30 +Weather +,2013-01-17 01:05:00,
2013-01-16 18:10:00,32.7,19.8,-100.00,WSW,248,5.1,8.5,58,0.00,,,-99.99,1.0,HOBO +U30 +Weather +,2013-01-17 01:10:00,
2013-01-16 18:15:00,32.5,19.6,-100.00,WSW,257,4.0,7.4,58,0.00,,,-99.99,1.0,HOBO +U30 +Weather +,2013-01-17 01:15:00,
2013-01-16 18:20:00,32.4,19.5,-100.00,WSW,251,5.1,8.9,58,0.00,,,-99.99,1.0,HOBO +U30 +Weather +,2013-01-17 01:20:00,
2013-01-16 18:25:00,32.3,19.3,-100.00,WSW,244,7.4,11.2,58,0.00,,,-99.99,1.0,HOBO +U30 +Weather +,2013-01-17 01:25:00,
2013-01-16 18:30:00,32.0,19.5,-100.00,WSW,244,5.1,8.5,59,0.00,,,-99.99,1.0,HOBO +U30 +Weather +,2013-01-17 01:30:00,
2013-01-16 18:35:00,32.0,19.4,-100.00,WSW,241,5.6,10.1,59,0.00,,,-99.99,1.0,HOBO +U30 +Weather +,2013-01-17 01:35:00,
2013-01-16 18:40:00,31.8,19.4,-100.00,WSW,240,5.1,8.9,59,0.00,,,-99.99,1.0,HOBO +U30 +Weather +,2013-01-17 01:40:00,
2013-01-16 18:45:00,31.5,19.3,-100.00,WSW,243,5.6,7.8,60,0.00,,,-99.99,1.0,HOBO +U30 +Weather +,2013-01-17 01:45:00,
2013-01-16 18:50:00,31.5,19.3,-100.00,WSW,243,5.6,8.9,60,0.00,,,-99.99,1.0,HOBO +U30 +Weather +,2013-01-17 01:50:00,
2013-01-16 18:55:00,31.4,19.3,-100.00,WSW,250,5.1,9.6,60,0.00,,,-99.99,1.0,HOBO +U30 +Weather +,2013-01-17 01:55:00,
2013-01-16 19:00:00,31.4,19.4,-100.00,WSW,253,3.4,8.9,60,0.00,,,-99.99,1.0,HOBO +U30 +Weather +,2013-01-17 02:00:00,
2013-01-16 19:05:00,31.3,19.3,-100.00,WSW,257,4.5,8.5,60,0.00,,,-99.99,1.0,HOBO +U30 +Weather +,2013-01-17 02:05:00,
2013-01-16 19:10:00,31.2,19.3,-100.00,West,263,4.0,8.5,60,0.00,,,-99.99,1.0,HOBO +U30 +Weather +,2013-01-17 02:10:00,
2013-01-16 19:15:00,31.3,19.2,-100.00,West,261,6.7,10.7,60,0.00,,,-99.99,1.0,HOBO +U30 +Weather +,2013-01-17 02:15:00,
2013-01-16 19:20:00,31.4,19.1,-100.00,West,261,6.7,10.1,60,0.00,,,-99.99,1.0,HOBO +U30 +Weather +,2013-01-17 02:20:00,
2013-01-16 19:25:00,31.3,19.0,-100.00,WSW,258,5.6,8.5,59,0.00,,,-99.99,1.0,HOBO +U30 +Weather +,2013-01-17 02:25:00,
2013-01-16 19:30:00,31.5,18.9,-100.00,WSW,256,5.6,8.5,59,0.00,,,-99.99,1.0,HOBO +U30 +Weather +,2013-01-17 02:30:00,
2013-01-16 19:35:00,31.4,18.9,-100.00,WSW,256,6.3,8.5,59,0.00,,,-99.99,1.0,HOBO +U30 +Weather +,2013-01-17 02:35:00,
2013-01-16 19:40:00,31.2,18.7,-100.00,West,260,4.5,7.4,59,0.00,,,-99.99,1.0,HOBO +U30 +Weather +,2013-01-17 02:40:00,
2013-01-16 19:45:00,31.2,18.7,-100.00,WSW,256,6.3,10.1,59,0.00,,,-99.99,1.0,HOBO +U30 +Weather +,2013-01-17 02:45:00,
2013-01-16 19:50:00,31.0,18.6,-100.00,WSW,256,5.1,8.9,59,0.00,,,-99.99,1.0,HOBO +U30 +Weather +,2013-01-17 02:50:00,
2013-01-16 19:55:00,30.8,18.5,-100.00,West,261,4.5,8.9,59,0.00,,,-99.99,1.0,HOBO +U30 +Weather +,2013-01-17 02:55:00,
2013-01-16 20:00:00,30.6,18.4,-100.00,West,261,6.3,8.9,60,0.00,,,-99.99,1.0,HOBO +U30 +Weather +,2013-01-17 03:00:00,
2013-01-16 20:05:00,30.5,18.5,-100.00,West,265,5.6,9.6,60,0.00,,,-99.99,1.0,HOBO +U30 +Weather +,2013-01-17 03:05:00,
2013-01-16 20:10:00,30.6,18.5,-100.00,WSW,257,5.6,9.6,60,0.00,,,-99.99,1.0,HOBO +U30 +Weather +,2013-01-17 03:10:00,
2013-01-16 20:15:00,30.7,18.5,-100.00,WSW,256,6.7,10.1,60,0.00,,,-99.99,1.0,HOBO +U30 +Weather +,2013-01-17 03:15:00,
2013-01-16 20:20:00,30.7,18.5,-100.00,WSW,253,5.6,8.5,60,0.00,,,-99.99,1.0,HOBO +U30 +Weather +,2013-01-17 03:20:00,
2013-01-16 20:25:00,30.7,18.4,-100.00,WSW,244,5.1,11.9,59,0.00,,,-99.99,1.0,HOBO +U30 +Weather +,2013-01-17 03:25:00,
2013-01-16 20:30:00,30.6,18.3,-100.00,WSW,244,5.6,9.6,59,0.00,,,-99.99,1.0,HOBO +U30 +Weather +,2013-01-17 03:30:00,
2013-01-16 20:35:00,30.4,18.4,-100.00,WSW,240,4.0,7.8,60,0.00,,,-99.99,1.0,HOBO +U30 +Weather +,2013-01-17 03:35:00,
2013-01-16 20:40:00,30.6,18.4,-100.00,WSW,239,4.5,8.5,60,0.00,,,-99.99,1.0,HOBO +U30 +Weather +,2013-01-17 03:40:00,
2013-01-16 20:45:00,30.4,18.2,-100.00,WSW,243,5.1,9.6,59,0.00,,,-99.99,1.0,HOBO +U30 +Weather +,2013-01-17 03:45:00,
2013-01-16 20:50:00,30.2,18.0,-100.00,WSW,248,5.6,11.2,60,0.00,,,-99.99,1.0,HOBO +U30 +Weather +,2013-01-17 03:50:00,
2013-01-16 20:55:00,30.3,18.0,-100.00,WSW,248,8.9,13.0,59,0.00,,,-99.99,1.0,HOBO +U30 +Weather +,2013-01-17 03:55:00,
2013-01-16 21:00:00,29.8,17.9,-100.00,WSW,254,7.4,11.2,60,0.00,,,-99.99,1.0,HOBO +U30 +Weather +,2013-01-17 04:00:00,
2013-01-16 21:05:00,29.7,17.9,-100.00,WSW,248,7.8,12.3,60,0.00,,,-99.99,1.0,HOBO +U30 +Weather +,2013-01-17 04:05:00,
2013-01-16 21:10:00,29.4,17.8,-100.00,West,260,5.1,9.6,61,0.00,,,-99.99,1.0,HOBO +U30 +Weather +,2013-01-17 04:10:00,
2013-01-16 21:15:00,29.3,17.8,-100.00,West,260,5.1,11.9,61,0.00,,,-99.99,1.0,HOBO +U30 +Weather +,2013-01-17 04:15:00,
2013-01-16 21:20:00,29.3,17.7,-100.00,WSW,258,6.3,11.2,61,0.00,,,-99.99,1.0,HOBO +U30 +Weather +,2013-01-17 04:20:00,
2013-01-16 21:25:00,29.2,17.7,-100.00,West,261,6.3,9.6,61,0.00,,,-99.99,1.0,HOBO +U30 +Weather +,2013-01-17 04:25:00,
2013-01-16 21:30:00,28.9,17.5,-100.00,West,260,5.6,10.1,61,0.00,,,-99.99,1.0,HOBO +U30 +Weather +,2013-01-17 04:30:00,
2013-01-16 21:35:00,29.0,17.5,-100.00,WSW,246,5.6,10.1,61,0.00,,,-99.99,1.0,HOBO +U30 +Weather +,2013-01-17 04:35:00,
2013-01-16 21:40:00,29.0,17.4,-100.00,WSW,247,6.3,10.7,61,0.00,,,-99.99,1.0,HOBO +U30 +Weather +,2013-01-17 04:40:00,
2013-01-16 21:45:00,28.9,17.5,-100.00,WSW,248,5.1,8.5,61,0.00,,,-99.99,1.0,HOBO +U30 +Weather +,2013-01-17 04:45:00,
2013-01-16 21:50:00,28.9,17.4,-100.00,WSW,253,6.3,9.6,61,0.00,,,-99.99,1.0,HOBO +U30 +Weather +,2013-01-17 04:50:00,
2013-01-16 21:55:00,28.9,17.3,-100.00,WSW,250,7.4,12.3,61,0.00,,,-99.99,1.0,HOBO +U30 +Weather +,2013-01-17 04:55:00,
2013-01-16 22:00:00,28.9,17.3,-100.00,WSW,248,8.5,13.4,61,0.00,,,-99.99,1.0,HOBO +U30 +Weather +,2013-01-17 05:00:00,
2013-01-16 22:05:00,28.8,17.3,-100.00,WSW,256,7.4,11.9,61,0.00,,,-99.99,1.0,HOBO +U30 +Weather +,2013-01-17 05:05:00,
2013-01-16 22:10:00,28.8,17.3,-100.00,WSW,258,7.8,11.9,61,0.00,,,-99.99,1.0,HOBO +U30 +Weather +,2013-01-17 05:10:00,
2013-01-16 22:15:00,28.6,17.2,-100.00,West,263,8.5,14.1,62,0.00,,,-99.99,1.0,HOBO +U30 +Weather +,2013-01-17 05:15:00,
2013-01-16 22:20:00,28.5,17.1,-100.00,West,263,8.5,11.9,61,0.00,,,-99.99,1.0,HOBO +U30 +Weather +,2013-01-17 05:20:00,
2013-01-16 22:25:00,28.5,17.1,-100.00,West,264,8.5,13.0,62,0.00,,,-99.99,1.0,HOBO +U30 +Weather +,2013-01-17 05:25:00,
2013-01-16 22:30:00,28.5,17.1,-100.00,West,264,7.8,12.3,62,0.00,,,-99.99,1.0,HOBO +U30 +Weather +,2013-01-17 05:30:00,
2013-01-16 22:35:00,28.4,17.0,-100.00,West,263,8.5,13.0,61,0.00,,,-99.99,1.0,HOBO +U30 +Weather +,2013-01-17 05:35:00,
2013-01-16 22:40:00,28.5,17.0,-100.00,West,263,8.5,13.0,61,0.00,,,-99.99,1.0,HOBO +U30 +Weather +,2013-01-17 05:40:00,
2013-01-16 22:45:00,28.5,17.0,-100.00,West,261,8.5,12.3,61,0.00,,,-99.99,1.0,HOBO +U30 +Weather +,2013-01-17 05:45:00,
2013-01-16 22:50:00,28.6,17.0,-100.00,WSW,257,7.8,13.0,61,0.00,,,-99.99,1.0,HOBO +U30 +Weather +,2013-01-17 05:50:00,
2013-01-16 22:55:00,28.6,17.0,-100.00,West,260,6.7,11.9,61,0.00,,,-99.99,1.0,HOBO +U30 +Weather +,2013-01-17 05:55:00,
2013-01-16 23:00:00,28.6,17.0,-100.00,West,263,7.4,13.0,61,0.00,,,-99.99,1.0,HOBO +U30 +Weather +,2013-01-17 06:00:00,
2013-01-16 23:05:00,28.6,16.9,-100.00,West,263,7.8,12.3,61,0.00,,,-99.99,1.0,HOBO +U30 +Weather +,2013-01-17 06:05:00,
2013-01-16 23:10:00,28.4,16.9,-100.00,West,267,6.7,10.7,61,0.00,,,-99.99,1.0,HOBO +U30 +Weather +,2013-01-17 06:10:00,
2013-01-16 23:15:00,28.4,16.9,-100.00,WSW,258,6.7,10.7,61,0.00,,,-99.99,1.0,HOBO +U30 +Weather +,2013-01-17 06:15:00,
2013-01-16 23:20:00,28.2,16.9,-100.00,West,261,6.3,10.7,62,0.00,,,-99.99,1.0,HOBO +U30 +Weather +,2013-01-17 06:20:00,
2013-01-16 23:25:00,28.2,16.9,-100.00,West,261,7.4,12.3,62,0.00,,,-99.99,1.0,HOBO +U30 +Weather +,2013-01-17 06:25:00,
2013-01-16 23:30:00,28.2,16.9,-100.00,West,261,7.4,11.2,62,0.00,,,-99.99,1.0,HOBO +U30 +Weather +,2013-01-17 06:30:00,
2013-01-16 23:35:00,28.3,16.9,-100.00,WSW,258,6.7,11.9,61,0.00,,,-99.99,1.0,HOBO +U30 +Weather +,2013-01-17 06:35:00,
2013-01-16 23:40:00,28.4,16.9,-100.00,West,263,7.4,12.3,61,0.00,,,-99.99,1.0,HOBO +U30 +Weather +,2013-01-17 06:40:00,
2013-01-16 23:45:00,28.5,16.9,-100.00,WSW,256,7.4,11.2,61,0.00,,,-99.99,1.0,HOBO +U30 +Weather +,2013-01-17 06:45:00,
2013-01-16 23:50:00,28.7,16.9,-100.00,WSW,250,8.5,13.0,60,0.00,,,-99.99,1.0,HOBO +U30 +Weather +,2013-01-17 06:50:00,
2013-01-16 23:55:00,28.5,16.9,-100.00,WSW,254,6.7,12.3,61,0.00,,,-99.99,1.0,HOBO +U30 +Weather +,2013-01-17 06:55:00,